U26950 / G-EZUL 7700 Squawk Report (14th of December, 2018)

Aircraft A320 Reg No. G-EZUL Age 7 years old
Model A320 Jet engines 2 First flight 31-01-12
Registered 08-02-12 Rollout 01-12 Delivered 08-02-12
Construction No. 5019 Line No. N/A Series 214
ADSHEX 406666 Airline name easyJet Owner N/A
Airfield based Luton~Beds~G First tracked 2017-07-13 07:52:00

Flight history for G-EZUL

Route Flight No Date Playback
Glasgow (GLA) - Bristol (BRS) U2408 2019-10-17 22:24:00
Bristol (BRS) - Glasgow (GLA) U2407 2019-10-17 20:33:00
Schiphol (AMS) - Bristol (BRS) U26168 2019-10-17 19:04:00
Bristol (BRS) - Schiphol (AMS) U26167 2019-10-17 16:41:00
Blagnac (TLS) - Bristol (BRS) U26140 2019-10-17 13:58:00
Bristol (BRS) - Blagnac (TLS) U26139 2019-10-17 11:11:00
Schiphol (AMS) - Bristol (BRS) U26162 2019-10-17 09:14:00
Bristol (BRS) - Schiphol (AMS) U26161 2019-10-17 07:15:00
Edinburgh (EDI) - Bristol (BRS) U2428 2019-10-16 19:12:00
Bristol (BRS) - Edinburgh (EDI) U2427 2019-10-16 17:21:00
Ibiza (IBZ) - Bristol (BRS) U26088 2019-10-16 14:55:00
Bristol (BRS) - Ibiza (IBZ) U26087 2019-10-16 11:39:00
Glasgow (GLA) - Bristol (BRS) U2402 2019-10-16 08:53:00
Bristol (BRS) - Glasgow (GLA) U2401 2019-10-16 06:59:00
???? N/A 2019-10-14 21:10:00
Orly (ORY) - Capodichino (NAP) U24249 2019-10-14 13:02:00
Capodichino (NAP) - Orly (ORY) U24250 2019-10-14 10:10:00
???? N/A 2019-10-14 07:28:00
Son Sant Joan (PMI) - Gatwick (LGW) U28634 2019-10-13 22:20:00
Gatwick (LGW) - Son Sant Joan (PMI) U28633 2019-10-13 19:04:00
Time Lat Lon Altitude Heading Speed Vertical Rate
2018-12-14 23:51:28 GMT 53.487198 -2.026195 2,950 223 173 -840
2018-12-14 23:51:12 GMT 53.496510 -2.011302 3,225 262 205 -780
2018-12-14 23:49:57 GMT 53.518127 -1.899943 3,875 262 205 -780
2018-12-14 23:49:42 GMT 53.520248 -1.875460 4,050 262 233 -1200
2018-12-14 23:49:29 GMT 53.522194 -1.852094 4,350 263 223 60
2018-12-14 23:49:19 GMT 53.523697 -1.833482 4,500 262 228 -720
2018-12-14 23:49:09 GMT 53.525646 -1.815339 4,625 254 258 -660
2018-12-14 23:48:59 GMT 53.530224 -1.798006 4,650 229 233 -60
2018-12-14 23:48:49 GMT 53.537754 -1.784980 4,800 214 267 0
2018-12-14 23:48:38 GMT 53.548698 -1.773789 4,825 205 210 -120
2018-12-14 23:48:28 GMT 53.571041 -1.754315 4,825 206 359 -60
2018-12-14 23:48:17 GMT 53.571041 -1.754315 4,850 202 189 60
2018-12-14 23:48:07 GMT 53.582752 -1.749186 4,900 183 260 180
2018-12-14 23:47:57 GMT 53.609013 -1.759063 4,850 162 399 -360
2018-12-14 23:47:46 GMT 53.609013 -1.759063 4,850 147 297 -1380
2018-12-14 23:47:34 GMT 53.621277 -1.776144 4,975 132 239 -1920
2018-12-14 23:47:23 GMT 53.629848 -1.799464 5,325 112 289 -3000
2018-12-14 23:47:13 GMT 53.633747 -1.822639 5,850 97 371 -5640
2018-12-14 23:47:03 GMT 53.635246 -1.848353 6,300 94 296 -4680
2018-12-14 23:46:52 GMT 53.634972 -1.876260 6,775 126 363 -2460
2018-12-14 23:46:42 GMT 53.638756 -1.901308 7,425 92 334 -3300
2018-12-14 23:46:31 GMT 53.640614 -1.927674 7,975 96 353 -4260
2018-12-14 23:46:20 GMT 53.642651 -1.956053 8,575 97 336 -2400
2018-12-14 23:46:09 GMT 53.644554 -1.985974 9,300 96 318 -1980
2018-12-14 23:45:59 GMT 53.648212 -2.041849 9,825 96 348 -2760
2018-12-14 23:45:48 GMT 53.648212 -2.041849 10,100 97 357 -3480
2018-12-14 23:45:38 GMT 53.649822 -2.069299 10,500 99 363 -3000
2018-12-14 23:45:28 GMT 53.654861 -2.124852 11,225 98 367 -4200
2018-12-14 23:45:18 GMT 53.654861 -2.124852 11,775 98 346 -2700
2018-12-14 23:45:08 GMT 53.656788 -2.150404 12,325 98 392 -2640
2018-12-14 23:44:57 GMT 53.659973 -2.182080 12,775 97 365 -2640
2018-12-14 23:44:45 GMT 53.662922 -2.218320 13,400 97 367 -2880
2018-12-14 23:44:34 GMT 53.664970 -2.249651 13,975 97 362 -3960
2018-12-14 23:44:24 GMT 53.667866 -2.278664 14,450 99 414 -3240
2018-12-14 23:44:14 GMT 53.670074 -2.307912 14,975 96 392 0
2018-12-14 23:44:04 GMT 53.672646 -2.338716 15,575 97 378 -6000
2018-12-14 23:43:54 GMT 53.674816 -2.368074 15,900 97 416 -3420
2018-12-14 23:43:44 GMT 53.677345 -2.399323 16,550 97 367 -4200
2018-12-14 23:43:34 GMT 53.679642 -2.430169 17,200 98 385 -3300
2018-12-14 23:43:23 GMT 53.682175 -2.463562 17,825 97 400 -7200
2018-12-14 23:43:13 GMT 53.684570 -2.495216 18,525 93 391 -3960
2018-12-14 23:43:03 GMT 53.686760 -2.527055 19,050 96 431 -3660
2018-12-14 23:42:52 GMT 53.688454 -2.560645 19,700 96 427 -2580
2018-12-14 23:42:42 GMT 53.691307 -2.593777 20,250 95 407 -2820
2018-12-14 23:42:32 GMT 53.694118 -2.626233 20,750 100 439 -4620
2018-12-14 23:42:22 GMT 53.699291 -2.692124 21,575 95 455 -3240
2018-12-14 23:42:12 GMT 53.699291 -2.692124 21,950 97 437 -3240
2018-12-14 23:42:02 GMT 53.702438 -2.725687 22,500 97 429 -2640
2018-12-14 23:41:51 GMT 53.705532 -2.762404 23,425 99 392 -3600
2018-12-14 23:41:40 GMT 53.708591 -2.799805 24,000 97 451 -1980
2018-12-14 23:41:28 GMT 53.712696 -2.841228 24,575 93 450 -1680
2018-12-14 23:41:17 GMT 53.714893 -2.880669 24,825 96 445 -3480
2018-12-14 23:41:07 GMT 53.717403 -2.916678 25,300 94 471 -3720
2018-12-14 23:40:57 GMT 53.718678 -2.952718 26,100 88 448 -2460
2018-12-14 23:40:47 GMT 53.714203 -3.024061 26,700 80 449 -4020
2018-12-14 23:40:37 GMT 53.714203 -3.024061 27,150 73 502 -1980
2018-12-14 23:40:26 GMT 53.706196 -3.062988 27,950 62 451 -3480
2018-12-14 23:40:16 GMT 53.697769 -3.096623 28,425 66 496 -1500
2018-12-14 23:40:05 GMT 53.686073 -3.132340 28,750 54 475 -300
2018-12-14 23:39:53 GMT 53.669746 -3.171037 28,950 50 482 -180
2018-12-14 23:39:42 GMT 53.653774 -3.201082 28,975 27 423 -180
2018-12-14 23:39:31 GMT 53.635094 -3.225357 29,025 42 488 -2700
2018-12-14 23:39:21 GMT 53.617493 -3.249172 29,100 28 463 0
2018-12-14 23:39:11 GMT 53.598728 -3.263599 29,225 11 423 -4980
2018-12-14 23:38:59 GMT 53.575878 -3.278959 29,575 11 459 -1800
2018-12-14 23:38:49 GMT 53.555054 -3.286073 30,025 7 475 -6840
2018-12-14 23:38:38 GMT 53.533913 -3.298456 30,900 350 443 -4920
2018-12-14 23:38:26 GMT 53.510098 -3.301048 32,025 1 419 -5340
2018-12-14 23:38:16 GMT 53.490215 -3.298488 32,925 353 470 -2580
2018-12-14 23:38:06 GMT 53.448681 -3.303848 33,850 7 436 -3180
2018-12-14 23:37:55 GMT 53.448681 -3.303848 34,225 0 407 -3180
2018-12-14 23:37:44 GMT 53.427826 -3.305052 35,050 355 451 -1680
2018-12-14 23:37:33 GMT 53.406624 -3.304303 35,700 0 387 -480
2018-12-14 23:37:23 GMT 53.387020 -3.307381 35,925 356 405 -120
2018-12-14 23:37:13 GMT 53.367805 -3.308947 36,025 355 442 0
2018-12-14 23:37:02 GMT 53.347023 -3.306307 36,025 12 386 0
2018-12-14 23:36:51 GMT 53.325966 -3.310949 36,025 2 403 0
2018-12-14 23:36:41 GMT 53.308857 -3.311007 36,025 4 453 -120
2018-12-14 23:36:31 GMT 53.287170 -3.314226 36,050 354 405 120
2018-12-14 23:36:21 GMT 53.267941 -3.314687 36,050 355 400 0
2018-12-14 23:36:10 GMT 53.247051 -3.317057 36,025 355 404 60
2018-12-14 23:35:59 GMT 53.207115 -3.316530 36,025 2 375 0
2018-12-14 23:35:49 GMT 53.184994 -3.318328 36,000 1 415 0
2018-12-14 23:35:38 GMT 53.162888 -3.319861 36,000 2 421 0
2018-12-14 23:35:27 GMT 53.162888 -3.319861 36,000 9 450 0
2018-12-14 23:35:17 GMT 53.144814 -3.320597 36,000 1 410 -60
2018-12-14 23:35:06 GMT 53.122932 -3.324275 36,000 1 447 -60
2018-12-14 23:34:56 GMT 53.102222 -3.325304 36,025 1 422 -120
2018-12-14 23:34:46 GMT 53.084122 -3.324041 36,050 7 468 0
2018-12-14 23:34:36 GMT 53.062988 -3.325265 36,025 8 430 0
2018-12-14 23:34:26 GMT 53.043697 -3.326676 36,025 6 423 300
2018-12-14 23:34:15 GMT 53.019680 -3.319771 36,050 19 395 0
2018-12-14 23:34:03 GMT 52.999161 -3.328474 36,000 5 407 0
2018-12-14 23:33:51 GMT 52.975452 -3.331749 35,975 1 422 0
2018-12-14 23:33:40 GMT 52.954353 -3.332502 35,950 3 468 0
2018-12-14 23:33:30 GMT 52.934261 -3.333848 35,950 353 371 0
2018-12-14 23:33:20 GMT 52.915413 -3.334591 35,950 4 410 0
2018-12-14 23:33:09 GMT 52.894653 -3.336722 35,950 6 449 -60
2018-12-14 23:32:59 GMT 52.875458 -3.336422 35,950 4 450 -60
2018-12-14 23:32:46 GMT 52.851177 -3.337470 35,975 5 450 -60
2018-12-14 23:32:36 GMT 52.829334 -3.342860 35,975 356 387 0
2018-12-14 23:32:25 GMT 52.808414 -3.341716 36,000 2 440 -60
2018-12-14 23:32:15 GMT 52.789558 -3.342912 36,025 4 443 0
2018-12-14 23:32:05 GMT 52.769657 -3.345402 36,025 359 402 0
2018-12-14 23:31:52 GMT 52.743637 -3.346490 36,025 12 449 -60
2018-12-14 23:31:41 GMT 52.723022 -3.348583 36,050 351 400 120
2018-12-14 23:31:31 GMT 52.702953 -3.351765 36,050 356 386 -120
2018-12-14 23:31:21 GMT 52.684071 -3.351200 36,025 3 449 -60
2018-12-14 23:31:10 GMT 52.661743 -3.351040 36,050 3 412 0
2018-12-14 23:30:59 GMT 52.640804 -3.353148 36,050 1 409 120
2018-12-14 23:30:49 GMT 52.620136 -3.353227 36,050 4 391 60
2018-12-14 23:30:38 GMT 52.598675 -3.355868 36,025 1 424 0
2018-12-14 23:30:25 GMT 52.574314 -3.357454 36,025 0 479 0
2018-12-14 23:30:14 GMT 52.553013 -3.357945 36,025 347 330 0
2018-12-14 23:30:03 GMT 52.529861 -3.360451 36,025 4 457 0
2018-12-14 23:29:53 GMT 52.486900 -3.363083 36,025 343 387 0
2018-12-14 23:29:41 GMT 52.486900 -3.363083 36,000 1 431 0
2018-12-14 23:29:31 GMT 52.466805 -3.364061 36,025 3 423 180
2018-12-14 23:29:21 GMT 52.447227 -3.366028 36,025 1 425 60
2018-12-14 23:29:10 GMT 52.426174 -3.366948 36,000 1 427 -120
2018-12-14 23:29:00 GMT 52.386959 -3.375143 35,975 14 396 0
2018-12-14 23:28:49 GMT 52.386959 -3.375143 36,000 352 465 0
2018-12-14 23:28:39 GMT 52.365627 -3.370253 35,975 15 432 0
2018-12-14 23:28:29 GMT 52.346317 -3.378878 36,000 346 420 0
2018-12-14 23:28:19 GMT 52.325317 -3.375366 36,000 1 319 0
2018-12-14 23:28:09 GMT 52.307682 -3.375200 36,000 2 419 60
2018-12-14 23:27:58 GMT 52.267193 -3.376821 36,000 6 411 60
2018-12-14 23:27:48 GMT 52.267193 -3.376821 36,000 10 436 0
2018-12-14 23:27:38 GMT 52.247353 -3.382959 35,975 341 512 0
2018-12-14 23:27:27 GMT 52.222565 -3.369727 35,975 11 388 0
2018-12-14 23:27:11 GMT 52.195515 -3.380982 35,975 356 415 60
2018-12-14 23:27:00 GMT 52.174419 -3.378762 35,975 7 419 60
2018-12-14 23:26:49 GMT 52.151592 -3.380887 35,950 10 375 0
2018-12-14 23:26:38 GMT 52.132423 -3.384261 35,950 357 456 -180
2018-12-14 23:26:27 GMT 52.110729 -3.385960 35,950 9 385 120
2018-12-14 23:26:17 GMT 52.090939 -3.385172 35,950 5 370 0
2018-12-14 23:26:06 GMT 52.071568 -3.394877 35,975 352 429 0
2018-12-14 23:25:55 GMT 52.049564 -3.390562 35,975 2 403 -120
2018-12-14 23:25:45 GMT 52.030079 -3.393194 35,975 356 425 0
2018-12-14 23:25:34 GMT 52.008694 -3.391531 36,000 356 432 0
2018-12-14 23:25:23 GMT 51.989040 -3.393353 36,000 5 442 0
2018-12-14 23:25:12 GMT 51.948803 -3.397071 36,000 0 431 -60
2018-12-14 23:25:02 GMT 51.926765 -3.396298 36,000 1 387 0
2018-12-14 23:24:51 GMT 51.905910 -3.409046 36,000 21 444 -60
2018-12-14 23:24:40 GMT 51.905910 -3.409046 36,025 2 448 -60
2018-12-14 23:24:29 GMT 51.883808 -3.410165 36,025 17 437 0
2018-12-14 23:24:19 GMT 51.864513 -3.419936 36,050 9 417 0
2018-12-14 23:24:09 GMT 51.820080 -3.443481 36,050 9 382 0
2018-12-14 23:23:57 GMT 51.820080 -3.443481 36,050 359 407 0
2018-12-14 23:23:47 GMT 51.800571 -3.442084 36,050 24 396 0
2018-12-14 23:23:37 GMT 51.783939 -3.454544 36,050 12 451 60
2018-12-14 23:23:26 GMT 51.760738 -3.463153 36,050 13 457 60
2018-12-14 23:23:16 GMT 51.721001 -3.480212 36,025 16 398 -60
2018-12-14 23:23:05 GMT 51.721001 -3.480212 36,000 16 423 0
2018-12-14 23:22:53 GMT 51.696499 -3.491968 36,025 8 462 60
2018-12-14 23:22:41 GMT 51.673225 -3.500435 36,025 20 429 0
2018-12-14 23:22:30 GMT 51.652233 -3.509170 36,000 15 465 0
2018-12-14 23:22:19 GMT 51.631123 -3.517232 36,000 22 505 0
2018-12-14 23:22:09 GMT 51.611050 -3.526981 36,000 15 434 0
2018-12-14 23:21:58 GMT 51.589771 -3.536543 36,000 14 429 60
2018-12-14 23:21:48 GMT 51.570549 -3.544795 36,000 13 445 60
2018-12-14 23:21:37 GMT 51.530434 -3.561455 35,975 14 413 -120
2018-12-14 23:21:27 GMT 51.530434 -3.561455 35,975 14 464 -120
2018-12-14 23:21:17 GMT 51.510242 -3.567639 36,000 21 416 0
2018-12-14 23:21:06 GMT 51.489540 -3.577730 36,000 15 447 0
2018-12-14 23:20:55 GMT 51.444767 -3.602339 36,000 24 443 -60
2018-12-14 23:20:44 GMT 51.444767 -3.602339 36,000 7 364 0
2018-12-14 23:20:31 GMT 51.421654 -3.606951 36,025 14 434 0
2018-12-14 23:20:21 GMT 51.401196 -3.615124 36,025 16 388 60
2018-12-14 23:20:11 GMT 51.383968 -3.623215 36,025 14 444 -60
2018-12-14 23:19:59 GMT 51.358593 -3.632997 36,000 17 364 60
2018-12-14 23:19:49 GMT 51.340576 -3.642257 36,025 13 435 -60
2018-12-14 23:19:37 GMT 51.317192 -3.650416 36,025 13 451 0
2018-12-14 23:19:25 GMT 51.292778 -3.659537 36,025 25 449 0
2018-12-14 23:19:15 GMT 51.276760 -3.669805 36,025 12 466 0
2018-12-14 23:19:05 GMT 51.233772 -3.685156 36,025 356 433 60
2018-12-14 23:18:54 GMT 51.233772 -3.685156 36,000 20 432 0
2018-12-14 23:18:44 GMT 51.214966 -3.696112 36,000 17 436 0
2018-12-14 23:18:23 GMT 51.174545 -3.716763 36,000 0 414 0
2018-12-14 23:18:13 GMT 51.155750 -3.714303 36,000 20 432 60
2018-12-14 23:18:03 GMT 51.137051 -3.725596 36,000 7 437 0
2018-12-14 23:17:51 GMT 51.094826 -3.743730 35,975 22 429 0
2018-12-14 23:17:41 GMT 51.094826 -3.743730 35,975 14 441 0
2018-12-14 23:17:30 GMT 51.072159 -3.751147 35,975 14 429 0
2018-12-14 23:17:19 GMT 51.052158 -3.753686 35,975 24 463 -60
2018-12-14 23:17:08 GMT 51.032204 -3.781015 35,975 354 451 60
2018-12-14 23:16:57 GMT 50.991310 -3.786662 35,975 17 437 -60
2018-12-14 23:16:47 GMT 50.991310 -3.786662 35,975 23 450 -60
2018-12-14 23:16:35 GMT 50.968460 -3.796953 35,975 11 413 0
2018-12-14 23:16:25 GMT 50.949730 -3.803196 36,000 17 393 0
2018-12-14 23:16:14 GMT 50.929394 -3.810567 36,000 16 428 0
2018-12-14 23:16:03 GMT 50.908970 -3.820890 36,025 19 475 -120
2018-12-14 23:15:53 GMT 50.890987 -3.828268 36,000 14 438 0
2018-12-14 23:15:43 GMT 50.871365 -3.836447 36,025 11 437 0
2018-12-14 23:15:32 GMT 50.850006 -3.844668 36,025 14 423 60
2018-12-14 23:15:22 GMT 50.808079 -3.861861 36,025 14 382 0
2018-12-14 23:15:10 GMT 50.808079 -3.861861 36,025 11 401 -60
2018-12-14 23:15:00 GMT 50.770409 -3.884656 36,025 29 507 60
2018-12-14 23:14:50 GMT 50.749252 -3.903655 36,025 333 417 60
2018-12-14 23:14:40 GMT 50.749252 -3.903655 36,025 333 417 60
2018-12-14 23:14:30 GMT 50.731964 -3.890086 36,000 19 410 0
2018-12-14 23:14:20 GMT 50.714016 -3.899937 36,000 16 427 0
2018-12-14 23:14:08 GMT 50.691044 -3.908779 36,000 15 427 0
2018-12-14 23:13:58 GMT 50.673145 -3.918207 36,000 10 445 0
2018-12-14 23:13:47 GMT 50.650890 -3.924999 36,000 15 381 0
2018-12-14 23:13:37 GMT 50.633049 -3.932914 36,000 13 417 0
2018-12-14 23:13:27 GMT 50.614269 -3.940124 36,000 16 407 0
2018-12-14 23:13:17 GMT 50.595039 -3.948332 36,000 16 396 0
2018-12-14 23:13:07 GMT 50.577461 -3.956536 36,000 9 439 0
2018-12-14 23:12:56 GMT 50.536411 -3.971653 36,000 22 424 0
2018-12-14 23:12:46 GMT 50.536411 -3.971653 36,000 15 379 0
2018-12-14 23:12:35 GMT 50.517799 -3.979755 36,000 12 463 0
2018-12-14 23:12:24 GMT 50.495277 -3.988671 36,000 10 417 0
2018-12-14 23:12:13 GMT 50.456333 -4.004273 36,000 16 418 0
2018-12-14 23:12:03 GMT 50.456333 -4.004273 36,000 15 415 0
2018-12-14 23:11:53 GMT 50.437809 -4.012307 36,000 14 428 0
2018-12-14 23:11:41 GMT 50.415237 -4.019802 36,000 17 418 60
2018-12-14 23:11:30 GMT 50.395992 -4.033013 36,000 7 426 0
2018-12-14 23:11:20 GMT 50.376339 -4.037035 36,000 13 433 0
2018-12-14 23:11:09 GMT 50.354851 -4.044955 35,975 15 406 0
2018-12-14 23:10:59 GMT 50.333603 -4.051767 35,975 15 383 0
2018-12-14 23:10:49 GMT 50.316490 -4.059186 36,000 16 399 0
2018-12-14 23:10:39 GMT 50.298820 -4.067562 35,975 15 391 0
2018-12-14 23:10:27 GMT 50.277920 -4.076782 35,975 13 447 -60
2018-12-14 23:10:16 GMT 50.236286 -4.091652 35,975 9 429 -60
2018-12-14 23:10:05 GMT 50.216278 -4.100525 36,000 14 413 0
2018-12-14 23:09:55 GMT 50.216278 -4.100525 36,000 14 411 0
2018-12-14 23:09:45 GMT 50.180058 -4.110370 36,000 14 408 0
2018-12-14 23:09:35 GMT 50.180058 -4.110370 36,000 22 452 0
2018-12-14 23:09:22 GMT 50.155815 -4.125173 36,000 13 427 0
2018-12-14 23:09:12 GMT 50.136608 -4.132536 36,000 14 406 0
2018-12-14 23:09:01 GMT 50.116566 -4.140399 36,000 13 411 -60
2018-12-14 23:08:51 GMT 50.097614 -4.148357 36,000 13 395 0
2018-12-14 23:08:40 GMT 50.076859 -4.155646 36,000 23 404 0
2018-12-14 23:08:30 GMT 50.059738 -4.167460 36,025 5 445 0
2018-12-14 23:08:20 GMT 50.039204 -4.170442 36,025 21 391 60
2018-12-14 23:08:09 GMT 50.020618 -4.181663 36,025 19 464 60
2018-12-14 23:07:58 GMT 49.998886 -4.186918 36,025 14 411 -60
2018-12-14 23:07:47 GMT 49.958771 -4.203275 36,000 14 438 0
2018-12-14 23:07:37 GMT 49.958771 -4.203275 36,025 12 413 60
2018-12-14 23:07:27 GMT 49.940105 -4.209909 36,025 14 411 -60
2018-12-14 23:07:15 GMT 49.918076 -4.219269 36,025 14 416 60
2018-12-14 23:07:04 GMT 49.897583 -4.226956 36,025 13 419 0
2018-12-14 23:06:54 GMT 49.879959 -4.234089 36,000 14 418 -60
2018-12-14 23:06:43 GMT 49.859001 -4.242616 36,025 13 415 0
2018-12-14 23:06:33 GMT 49.840336 -4.249834 36,025 14 438 0
2018-12-14 23:06:22 GMT 49.818745 -4.258446 36,025 14 429 0
2018-12-14 23:06:08 GMT 49.793564 -4.268203 36,025 14 452 0
2018-12-14 23:05:58 GMT 49.774143 -4.275963 36,025 13 400 0
2018-12-14 23:05:48 GMT 49.756142 -4.282732 36,025 17 396 0
2018-12-14 23:05:37 GMT 49.735664 -4.291646 36,025 13 442 180
2018-12-14 23:05:26 GMT 49.689732 -4.309099 36,025 14 412 -60
2018-12-14 23:05:12 GMT 49.689732 -4.309099 36,000 13 445 60
2018-12-14 23:05:01 GMT 49.668251 -4.317490 36,000 14 398 0
2018-12-14 23:04:50 GMT 49.647545 -4.326054 35,975 12 398 0
2018-12-14 23:04:37 GMT 49.623634 -4.334889 35,975 15 418 0
2018-12-14 23:04:26 GMT 49.603287 -4.342971 35,975 14 391 60
2018-12-14 23:04:13 GMT 49.579758 -4.352214 35,950 14 381 0
2018-12-14 23:04:03 GMT 49.562637 -4.358821 35,950 13 505 0
2018-12-14 23:03:52 GMT 49.537601 -4.367863 35,950 13 314 -60
2018-12-14 23:03:40 GMT 49.519295 -4.374911 35,950 13 406 -60
2018-12-14 23:03:30 GMT 49.500992 -4.381682 35,975 13 403 0
2018-12-14 23:03:17 GMT 49.477650 -4.390139 35,975 16 413 -60
2018-12-14 23:03:06 GMT 49.457603 -4.399059 35,975 22 384 0
2018-12-14 23:02:55 GMT 49.437756 -4.410755 36,000 20 414 -60
2018-12-14 23:02:45 GMT 49.419857 -4.421255 36,000 22 399 0
2018-12-14 23:02:35 GMT 49.402451 -4.432377 36,000 19 390 0
2018-12-14 23:02:22 GMT 49.378868 -4.445735 36,025 21 403 0
2018-12-14 23:02:10 GMT 49.333992 -4.473339 36,025 22 432 0
2018-12-14 23:01:57 GMT 49.333992 -4.473339 36,025 21 424 0
2018-12-14 23:01:46 GMT 49.313927 -4.485531 36,025 20 399 0
2018-12-14 23:01:36 GMT 49.296638 -4.495470 36,025 21 406 0
2018-12-14 23:01:26 GMT 49.277298 -4.507453 36,025 20 412 0
2018-12-14 23:01:16 GMT 49.259369 -4.517546 36,025 22 393 0
2018-12-14 23:01:06 GMT 49.242588 -4.528349 36,025 21 403 0
2018-12-14 23:00:53 GMT 49.217831 -4.543336 36,025 19 400 60
2018-12-14 23:00:42 GMT 49.198631 -4.553861 36,000 23 419 0
2018-12-14 23:00:30 GMT 49.177620 -4.567121 36,000 22 443 -60
2018-12-14 23:00:19 GMT 49.156693 -4.580093 36,000 19 400 60
2018-12-14 23:00:07 GMT 49.135731 -4.591393 36,000 21 416 0
2018-12-14 22:59:56 GMT 49.116093 -4.603511 36,000 21 424 0
2018-12-14 22:59:44 GMT 49.094212 -4.616894 36,000 21 385 0
2018-12-14 22:59:33 GMT 49.075920 -4.627628 36,000 21 441 0
2018-12-14 22:59:22 GMT 49.055340 -4.639631 36,000 21 415 0
2018-12-14 22:59:12 GMT 49.019794 -4.661330 36,000 20 387 0
2018-12-14 22:59:02 GMT 49.019794 -4.661330 36,000 21 401 0
2018-12-14 22:58:51 GMT 48.981281 -4.683736 36,000 21 412 60
2018-12-14 22:58:40 GMT 48.981281 -4.683736 36,000 21 416 0
2018-12-14 22:58:29 GMT 48.961472 -4.695364 35,975 21 454 0
2018-12-14 22:58:18 GMT 48.940033 -4.708513 35,975 20 394 -60
2018-12-14 22:58:08 GMT 48.922497 -4.718681 35,975 22 381 0
2018-12-14 22:57:54 GMT 48.897694 -4.732850 36,000 21 377 0
2018-12-14 22:57:44 GMT 48.881413 -4.742475 36,000 20 409 0
2018-12-14 22:57:34 GMT 48.863720 -4.752751 36,000 21 421 0
2018-12-14 22:57:22 GMT 48.841457 -4.766594 36,000 19 418 0
2018-12-14 22:57:12 GMT 48.806435 -4.786715 36,000 21 411 0
2018-12-14 22:57:02 GMT 48.806435 -4.786715 36,000 21 399 -60
2018-12-14 22:56:49 GMT 48.766197 -4.810065 36,000 20 390 -60
2018-12-14 22:56:39 GMT 48.766197 -4.810065 36,025 20 452 60
2018-12-14 22:56:28 GMT 48.744667 -4.822550 36,000 20 399 0
2018-12-14 22:56:17 GMT 48.725658 -4.833549 36,000 21 418 -60
2018-12-14 22:56:03 GMT 48.700909 -4.848226 36,000 20 404 0
2018-12-14 22:55:52 GMT 48.681698 -4.859359 36,000 21 432 0
2018-12-14 22:55:39 GMT 48.640858 -4.883299 36,025 20 399 0
2018-12-14 22:55:29 GMT 48.640858 -4.883299 36,025 21 455 0
2018-12-14 22:55:19 GMT 48.621185 -4.894734 36,025 21 370 0
2018-12-14 22:55:09 GMT 48.581848 -4.917983 36,025 21 458 60
2018-12-14 22:54:57 GMT 48.581848 -4.917983 36,000 20 375 0
2018-12-14 22:54:45 GMT 48.543087 -4.940290 36,000 21 391 60
2018-12-14 22:54:35 GMT 48.543087 -4.940290 36,000 20 414 60
2018-12-14 22:54:24 GMT 48.506645 -4.961326 36,000 22 413 -60
2018-12-14 22:54:14 GMT 48.506645 -4.961326 36,000 20 420 -60
2018-12-14 22:54:02 GMT 48.484455 -4.974237 36,000 16 416 0
2018-12-14 22:53:52 GMT 48.465965 -4.982381 36,000 25 439 60
2018-12-14 22:53:41 GMT 48.445751 -4.996753 35,975 22 403 60
2018-12-14 22:53:30 GMT 48.427265 -5.008793 35,975 20 410 0
2018-12-14 22:53:19 GMT 48.407673 -5.019813 35,975 20 434 0
2018-12-14 22:53:08 GMT 48.386196 -5.032945 35,975 19 398 0
2018-12-14 22:52:54 GMT 48.361874 -5.045957 35,975 20 392 0
2018-12-14 22:52:43 GMT 48.343189 -5.056644 35,975 22 444 0
2018-12-14 22:52:32 GMT 48.323032 -5.068809 35,975 19 428 0
2018-12-14 22:52:22 GMT 48.305401 -5.078821 35,975 21 432 0
2018-12-14 22:52:12 GMT 48.286522 -5.089754 35,975 20 417 0
2018-12-14 22:52:02 GMT 48.235672 -5.119207 36,000 20 418 0
2018-12-14 22:51:43 GMT 48.235672 -5.119207 35,975 19 401 0
2018-12-14 22:51:32 GMT 48.215286 -5.130799 36,000 20 419 0
2018-12-14 22:51:22 GMT 48.198170 -5.140077 36,000 20 417 0
2018-12-14 22:51:10 GMT 48.175270 -5.152867 36,000 20 403 0
2018-12-14 22:50:55 GMT 48.103230 -5.194300 36,000 20 423 0
2018-12-14 22:50:30 GMT 48.103230 -5.194300 36,025 20 399 0
2018-12-14 22:50:20 GMT 48.085201 -5.203859 36,025 21 393 0
2018-12-14 22:50:10 GMT 48.067329 -5.214507 36,025 21 394 0
2018-12-14 22:49:59 GMT 48.047661 -5.226072 36,025 20 424 0
2018-12-14 22:49:47 GMT 48.027199 -5.237307 36,025 21 457 0
2018-12-14 22:49:37 GMT 48.009014 -5.247461 36,025 20 406 0
2018-12-14 22:49:26 GMT 47.987988 -5.259618 36,025 20 421 0
2018-12-14 22:49:05 GMT 47.949909 -5.280988 36,025 20 428 0
2018-12-14 22:48:51 GMT 47.924995 -5.295571 36,025 20 439 0
2018-12-14 22:48:40 GMT 47.903412 -5.307920 36,025 20 404 0
2018-12-14 22:48:30 GMT 47.885654 -5.317051 36,000 20 428 0
2018-12-14 22:48:20 GMT 47.867130 -5.327521 36,025 21 421 0
2018-12-14 22:48:10 GMT 47.848961 -5.338087 36,025 20 418 0
2018-12-14 22:47:57 GMT 47.826958 -5.350457 36,025 20 424 0
2018-12-14 22:47:45 GMT 47.803490 -5.363865 36,000 20 418 0
2018-12-14 22:47:28 GMT 47.773052 -5.381425 36,025 20 420 0
2018-12-14 22:46:57 GMT 47.716614 -5.412550 36,000 20 415 0
2018-12-14 22:46:33 GMT 47.672920 -5.437746 36,000 20 409 64
2018-12-14 22:46:17 GMT 47.626617 -5.468304 36,000 19 303 64
2018-12-14 22:46:05 GMT 47.604317 -5.481192 35,975 20 410 64
2018-12-14 22:45:54 GMT 47.582111 -5.493727 36,000 20 404 0
2018-12-14 22:45:45 GMT 47.567589 -5.501826 36,000 20 404 0
2018-12-14 22:45:32 GMT 47.542683 -5.515066 35,975 20 402 0
2018-12-14 22:45:21 GMT 47.525318 -5.524785 35,975 21 417 0
2018-12-14 22:45:11 GMT 47.508186 -5.535983 35,975 21 417 0
2018-12-14 22:45:05 GMT 47.476112 -5.551406 35,975 21 417 0
2018-12-14 22:44:53 GMT 47.476112 -5.551406 35,975 21 417 0
2018-12-14 22:44:46 GMT 47.464706 -5.556688 35,975 21 417 0
2018-12-14 22:44:33 GMT 47.443108 -5.567392 35,975 21 417 0
2018-12-14 22:44:23 GMT 47.425793 -5.575209 35,975 21 417 0
2018-12-14 22:44:11 GMT 47.402187 -5.589083 36,000 21 417 0
2018-12-14 22:43:55 GMT 47.375793 -5.603098 36,000 21 417 0
2018-12-14 22:43:49 GMT 47.364716 -5.608732 36,000 20 430 0
2018-12-14 22:43:41 GMT 47.352192 -5.615422 36,000 20 430 0
2018-12-14 22:43:29 GMT 47.330685 -5.626620 36,000 21 433 0
2018-12-14 22:43:21 GMT 47.318394 -5.632465 36,000 21 436 0
2018-12-14 22:43:04 GMT 47.283714 -5.651902 36,000 21 438 0
2018-12-14 22:42:57 GMT 47.256901 -5.667185 36,000 21 437 0
2018-12-14 22:42:49 GMT 47.256901 -5.667185 36,000 21 437 0
2018-12-14 22:42:37 GMT 47.236507 -5.680777 36,000 20 417 0
2018-12-14 22:42:25 GMT 47.209324 -5.696904 36,000 20 417 0
2018-12-14 22:42:15 GMT 47.194378 -5.704087 36,000 20 417 0
2018-12-14 22:42:00 GMT 47.165703 -5.720708 35,975 20 417 0
2018-12-14 22:41:51 GMT 47.145222 -5.733032 36,000 20 417 0
2018-12-14 22:41:41 GMT 47.123898 -5.747329 36,000 20 417 0
2018-12-14 22:41:32 GMT 47.106022 -5.757822 36,000 20 417 0
2018-12-14 22:41:27 GMT 47.094711 -5.764019 36,000 20 417 0
2018-12-14 22:41:10 GMT 47.067898 -5.777682 36,025 20 417 0
2018-12-14 22:41:05 GMT 47.055794 -5.784513 36,000 20 417 0
2018-12-14 22:40:54 GMT 47.039406 -5.793105 36,000 20 416 0
2018-12-14 22:40:43 GMT 47.012405 -5.807612 36,000 19 382 0
2018-12-14 22:40:27 GMT 46.983917 -5.825571 36,000 19 382 0
2018-12-14 22:40:21 GMT 46.974003 -5.833106 36,000 17 368 0

Making use of Plane Finder data

You are free to use the raw flight data, aircraft information and images provided in this report for your own purposes provided the data is correctly attributed to Plane Finder. We ask that you please credit Plane Finder and link to planefinder.net in close proximity to the content.

Optionally one of the following logos (no smaller then 150x24px) can be used and must link to planefinder.net

Embedding the Plane Finder map

You are welcome to embed the Plane Finder playback map on your website to offer visitors a more interactive experience. We suggest using the following HTML code:

<iframe src="//planefinder.net/data/report/U26950-G-EZUL-7700-squawk-2018-12-14/map" width="800" height="600" seamless="seamless"></iframe>

Where our data comes from

Plane Finder has a global network of data feeds and antenna radars that receive data broadcast directly from aircraft. The primary technologies used are ADS-B and MLAT. We also show feeds from the FAA and a FLARM glider feed.

Click here to find out more about the Plane Finder network.

How we collect our data